sensor_id;sensor_type;location;lat;lon;timestamp;temperature;humidity
15217;DHT22;7711;46.634;14.318;2023-11-19T00:00:39;2.00;99.90
15217;DHT22;7711;46.634;14.318;2023-11-19T00:03:05;2.00;99.90
15217;DHT22;7711;46.634;14.318;2023-11-19T00:05:35;2.00;99.90
15217;DHT22;7711;46.634;14.318;2023-11-19T00:08:02;2.10;99.90
15217;DHT22;7711;46.634;14.318;2023-11-19T00:10:29;2.00;99.90
15217;DHT22;7711;46.634;14.318;2023-11-19T00:12:56;2.00;99.90
15217;DHT22;7711;46.634;14.318;2023-11-19T00:15:23;2.00;99.90
15217;DHT22;7711;46.634;14.318;2023-11-19T00:17:51;2.00;99.90
15217;DHT22;7711;46.634;14.318;2023-11-19T00:20:19;2.00;99.90
15217;DHT22;7711;46.634;14.318;2023-11-19T00:22:49;2.00;99.90
15217;DHT22;7711;46.634;14.318;2023-11-19T00:25:17;2.00;99.90
15217;DHT22;7711;46.634;14.318;2023-11-19T00:27:44;2.00;99.90
15217;DHT22;7711;46.634;14.318;2023-11-19T00:30:12;1.90;99.90
15217;DHT22;7711;46.634;14.318;2023-11-19T00:32:39;1.90;99.90
15217;DHT22;7711;46.634;14.318;2023-11-19T00:35:07;1.90;99.90
15217;DHT22;7711;46.634;14.318;2023-11-19T00:37:35;1.90;99.90
15217;DHT22;7711;46.634;14.318;2023-11-19T00:40:05;1.80;99.90
15217;DHT22;7711;46.634;14.318;2023-11-19T00:42:32;1.90;99.90
15217;DHT22;7711;46.634;14.318;2023-11-19T00:44:59;1.80;99.90
15217;DHT22;7711;46.634;14.318;2023-11-19T00:47:27;1.80;99.90
15217;DHT22;7711;46.634;14.318;2023-11-19T00:49:54;1.70;99.90
15217;DHT22;7711;46.634;14.318;2023-11-19T00:52:21;1.60;99.90
15217;DHT22;7711;46.634;14.318;2023-11-19T00:54:48;1.60;99.90
15217;DHT22;7711;46.634;14.318;2023-11-19T00:57:16;1.60;99.90
15217;DHT22;7711;46.634;14.318;2023-11-19T00:59:43;1.60;99.90
15217;DHT22;7711;46.634;14.318;2023-11-19T01:02:11;1.60;99.90
15217;DHT22;7711;46.634;14.318;2023-11-19T01:04:39;1.50;99.90
15217;DHT22;7711;46.634;14.318;2023-11-19T01:07:06;1.50;99.90
15217;DHT22;7711;46.634;14.318;2023-11-19T01:09:38;1.50;99.90
15217;DHT22;7711;46.634;14.318;2023-11-19T01:12:06;1.50;99.90
15217;DHT22;7711;46.634;14.318;2023-11-19T01:14:36;1.40;99.90
15217;DHT22;7711;46.634;14.318;2023-11-19T01:17:03;1.30;99.90
15217;DHT22;7711;46.634;14.318;2023-11-19T01:19:30;1.30;99.90
15217;DHT22;7711;46.634;14.318;2023-11-19T01:21:57;1.30;99.90
15217;DHT22;7711;46.634;14.318;2023-11-19T01:24:24;1.20;99.90
15217;DHT22;7711;46.634;14.318;2023-11-19T01:26:54;1.20;99.90
15217;DHT22;7711;46.634;14.318;2023-11-19T01:29:21;1.10;99.90
15217;DHT22;7711;46.634;14.318;2023-11-19T01:31:49;1.10;99.90
15217;DHT22;7711;46.634;14.318;2023-11-19T01:34:18;1.00;99.90
15217;DHT22;7711;46.634;14.318;2023-11-19T01:36:46;1.10;99.90
15217;DHT22;7711;46.634;14.318;2023-11-19T01:39:14;1.10;99.90
15217;DHT22;7711;46.634;14.318;2023-11-19T01:41:43;1.00;99.90
15217;DHT22;7711;46.634;14.318;2023-11-19T01:44:10;1.00;99.90
15217;DHT22;7711;46.634;14.318;2023-11-19T01:46:38;1.10;99.90
15217;DHT22;7711;46.634;14.318;2023-11-19T01:49:08;1.00;99.90
15217;DHT22;7711;46.634;14.318;2023-11-19T01:51:38;1.00;99.90
15217;DHT22;7711;46.634;14.318;2023-11-19T01:54:06;1.10;99.90
15217;DHT22;7711;46.634;14.318;2023-11-19T01:56:34;1.10;99.90
15217;DHT22;7711;46.634;14.318;2023-11-19T01:59:02;1.10;99.90
15217;DHT22;7711;46.634;14.318;2023-11-19T02:01:29;1.20;99.90
15217;DHT22;7711;46.634;14.318;2023-11-19T02:03:58;1.20;99.90
15217;DHT22;7711;46.634;14.318;2023-11-19T02:06:28;1.20;99.90
15217;DHT22;7711;46.634;14.318;2023-11-19T02:08:55;1.20;99.90
15217;DHT22;7711;46.634;14.318;2023-11-19T02:11:22;1.20;99.90
15217;DHT22;7711;46.634;14.318;2023-11-19T02:13:49;1.30;99.90
15217;DHT22;7711;46.634;14.318;2023-11-19T02:16:16;1.30;99.90
15217;DHT22;7711;46.634;14.318;2023-11-19T02:18:43;1.30;99.90
15217;DHT22;7711;46.634;14.318;2023-11-19T02:21:10;1.30;99.90
15217;DHT22;7711;46.634;14.318;2023-11-19T02:23:38;1.30;99.90
15217;DHT22;7711;46.634;14.318;2023-11-19T02:26:13;1.40;99.90
15217;DHT22;7711;46.634;14.318;2023-11-19T02:28:43;1.40;99.90
15217;DHT22;7711;46.634;14.318;2023-11-19T02:31:10;1.40;99.90
15217;DHT22;7711;46.634;14.318;2023-11-19T02:33:37;1.40;99.90
15217;DHT22;7711;46.634;14.318;2023-11-19T02:36:05;1.50;99.90
15217;DHT22;7711;46.634;14.318;2023-11-19T02:38:32;1.40;99.90
15217;DHT22;7711;46.634;14.318;2023-11-19T02:41:02;1.30;99.90
15217;DHT22;7711;46.634;14.318;2023-11-19T02:43:30;1.30;99.90
15217;DHT22;7711;46.634;14.318;2023-11-19T02:46:00;1.20;99.90
15217;DHT22;7711;46.634;14.318;2023-11-19T02:48:27;1.20;99.90
15217;DHT22;7711;46.634;14.318;2023-11-19T02:50:54;1.20;99.90
15217;DHT22;7711;46.634;14.318;2023-11-19T02:53:24;1.20;99.90
15217;DHT22;7711;46.634;14.318;2023-11-19T02:55:53;1.10;99.90
15217;DHT22;7711;46.634;14.318;2023-11-19T02:58:26;1.00;99.90
15217;DHT22;7711;46.634;14.318;2023-11-19T03:00:54;1.00;99.90
15217;DHT22;7711;46.634;14.318;2023-11-19T03:03:25;0.90;99.90
15217;DHT22;7711;46.634;14.318;2023-11-19T03:05:56;0.80;99.90
15217;DHT22;7711;46.634;14.318;2023-11-19T03:08:23;0.80;99.90
15217;DHT22;7711;46.634;14.318;2023-11-19T03:10:50;0.80;99.90
15217;DHT22;7711;46.634;14.318;2023-11-19T03:13:17;0.80;99.90
15217;DHT22;7711;46.634;14.318;2023-11-19T03:15:44;0.70;99.90
15217;DHT22;7711;46.634;14.318;2023-11-19T03:18:11;0.70;99.90
15217;DHT22;7711;46.634;14.318;2023-11-19T03:20:40;0.60;99.90
15217;DHT22;7711;46.634;14.318;2023-11-19T03:23:07;0.50;99.90
15217;DHT22;7711;46.634;14.318;2023-11-19T03:25:34;0.50;99.90
15217;DHT22;7711;46.634;14.318;2023-11-19T03:28:02;0.40;99.90
15217;DHT22;7711;46.634;14.318;2023-11-19T03:30:30;0.30;99.90
15217;DHT22;7711;46.634;14.318;2023-11-19T03:32:58;0.20;99.90
15217;DHT22;7711;46.634;14.318;2023-11-19T03:35:25;0.30;99.90
15217;DHT22;7711;46.634;14.318;2023-11-19T03:37:55;0.40;99.90
15217;DHT22;7711;46.634;14.318;2023-11-19T03:40:22;0.30;99.90
15217;DHT22;7711;46.634;14.318;2023-11-19T03:42:50;0.40;99.90
15217;DHT22;7711;46.634;14.318;2023-11-19T03:45:17;0.30;99.90
15217;DHT22;7711;46.634;14.318;2023-11-19T03:47:44;0.30;99.90
15217;DHT22;7711;46.634;14.318;2023-11-19T03:50:11;0.20;99.90
15217;DHT22;7711;46.634;14.318;2023-11-19T03:52:42;0.20;99.90
15217;DHT22;7711;46.634;14.318;2023-11-19T03:55:10;0.10;99.90
15217;DHT22;7711;46.634;14.318;2023-11-19T03:57:38;0.00;99.90
15217;DHT22;7711;46.634;14.318;2023-11-19T04:00:06;0.00;99.90
15217;DHT22;7711;46.634;14.318;2023-11-19T04:02:35;0.00;99.90
15217;DHT22;7711;46.634;14.318;2023-11-19T04:05:01;0.00;99.90
15217;DHT22;7711;46.634;14.318;2023-11-19T04:07:28;0.00;99.90
15217;DHT22;7711;46.634;14.318;2023-11-19T04:09:55;-0.10;99.90
15217;DHT22;7711;46.634;14.318;2023-11-19T04:12:24;0.00;99.90
15217;DHT22;7711;46.634;14.318;2023-11-19T04:14:51;0.00;99.90
15217;DHT22;7711;46.634;14.318;2023-11-19T04:17:18;0.00;99.90
15217;DHT22;7711;46.634;14.318;2023-11-19T04:19:45;0.00;99.90
15217;DHT22;7711;46.634;14.318;2023-11-19T04:22:11;0.00;99.90
15217;DHT22;7711;46.634;14.318;2023-11-19T04:24:38;0.00;99.90
15217;DHT22;7711;46.634;14.318;2023-11-19T04:27:06;-0.10;99.90
15217;DHT22;7711;46.634;14.318;2023-11-19T04:29:34;-0.10;99.90
15217;DHT22;7711;46.634;14.318;2023-11-19T04:32:01;-0.20;99.90
15217;DHT22;7711;46.634;14.318;2023-11-19T04:34:28;-0.30;99.90
15217;DHT22;7711;46.634;14.318;2023-11-19T04:36:55;-0.40;99.90
15217;DHT22;7711;46.634;14.318;2023-11-19T04:39:22;-0.40;1.00
15217;DHT22;7711;46.634;14.318;2023-11-19T04:41:49;-0.40;1.00
15217;DHT22;7711;46.634;14.318;2023-11-19T04:44:17;-0.30;1.00
15217;DHT22;7711;46.634;14.318;2023-11-19T04:46:46;-0.50;1.00
15217;DHT22;7711;46.634;14.318;2023-11-19T04:49:13;-0.50;1.00
15217;DHT22;7711;46.634;14.318;2023-11-19T04:51:43;-0.50;1.00
15217;DHT22;7711;46.634;14.318;2023-11-19T04:54:12;-0.60;1.00
15217;DHT22;7711;46.634;14.318;2023-11-19T04:56:39;-0.70;1.00
15217;DHT22;7711;46.634;14.318;2023-11-19T04:59:07;-0.60;1.00
15217;DHT22;7711;46.634;14.318;2023-11-19T05:01:34;-0.70;1.00
15217;DHT22;7711;46.634;14.318;2023-11-19T05:04:03;-0.70;1.00
15217;DHT22;7711;46.634;14.318;2023-11-19T05:06:31;-0.70;1.00
15217;DHT22;7711;46.634;14.318;2023-11-19T05:08:59;-0.40;1.00
15217;DHT22;7711;46.634;14.318;2023-11-19T05:11:29;-0.60;1.00
15217;DHT22;7711;46.634;14.318;2023-11-19T05:13:56;-0.70;1.00
15217;DHT22;7711;46.634;14.318;2023-11-19T05:16:22;-0.80;1.00
15217;DHT22;7711;46.634;14.318;2023-11-19T05:18:49;-0.70;1.00
15217;DHT22;7711;46.634;14.318;2023-11-19T05:21:18;-0.80;1.00
15217;DHT22;7711;46.634;14.318;2023-11-19T05:23:45;-0.80;1.00
15217;DHT22;7711;46.634;14.318;2023-11-19T05:26:17;-0.80;1.00
15217;DHT22;7711;46.634;14.318;2023-11-19T05:28:45;-0.70;1.00
15217;DHT22;7711;46.634;14.318;2023-11-19T05:31:12;-0.80;1.00
15217;DHT22;7711;46.634;14.318;2023-11-19T05:33:39;-0.80;1.00
15217;DHT22;7711;46.634;14.318;2023-11-19T05:36:07;-0.80;1.00
15217;DHT22;7711;46.634;14.318;2023-11-19T05:38:36;-0.70;1.00
15217;DHT22;7711;46.634;14.318;2023-11-19T05:41:04;-0.70;1.00
15217;DHT22;7711;46.634;14.318;2023-11-19T05:43:31;-0.70;1.00
15217;DHT22;7711;46.634;14.318;2023-11-19T05:45:58;-0.60;1.00
15217;DHT22;7711;46.634;14.318;2023-11-19T05:48:26;-0.60;1.00
15217;DHT22;7711;46.634;14.318;2023-11-19T05:50:53;-0.40;1.00
15217;DHT22;7711;46.634;14.318;2023-11-19T05:53:20;-0.40;1.00
15217;DHT22;7711;46.634;14.318;2023-11-19T05:55:49;-0.30;1.00
15217;DHT22;7711;46.634;14.318;2023-11-19T05:58:23;-0.20;1.00
15217;DHT22;7711;46.634;14.318;2023-11-19T06:00:50;-0.10;1.00
15217;DHT22;7711;46.634;14.318;2023-11-19T06:03:17;-0.10;1.00
15217;DHT22;7711;46.634;14.318;2023-11-19T06:05:44;-0.10;1.00
15217;DHT22;7711;46.634;14.318;2023-11-19T06:08:12;0.00;1.00
15217;DHT22;7711;46.634;14.318;2023-11-19T06:10:40;0.00;1.00
15217;DHT22;7711;46.634;14.318;2023-11-19T06:13:08;0.30;1.00
15217;DHT22;7711;46.634;14.318;2023-11-19T06:15:37;0.10;99.90
15217;DHT22;7711;46.634;14.318;2023-11-19T06:18:04;0.30;99.90
15217;DHT22;7711;46.634;14.318;2023-11-19T06:20:32;0.30;99.90
15217;DHT22;7711;46.634;14.318;2023-11-19T06:22:59;0.40;99.90
15217;DHT22;7711;46.634;14.318;2023-11-19T06:25:26;0.40;99.90
15217;DHT22;7711;46.634;14.318;2023-11-19T06:27:53;0.40;99.90
15217;DHT22;7711;46.634;14.318;2023-11-19T06:30:21;0.40;99.90
15217;DHT22;7711;46.634;14.318;2023-11-19T06:32:48;0.20;99.90
15217;DHT22;7711;46.634;14.318;2023-11-19T06:35:15;0.20;99.90
15217;DHT22;7711;46.634;14.318;2023-11-19T06:37:43;0.20;99.90
15217;DHT22;7711;46.634;14.318;2023-11-19T06:40:11;0.20;99.90
15217;DHT22;7711;46.634;14.318;2023-11-19T06:42:38;0.30;99.90
15217;DHT22;7711;46.634;14.318;2023-11-19T06:45:06;0.30;1.00
15217;DHT22;7711;46.634;14.318;2023-11-19T06:47:34;0.40;1.00
15217;DHT22;7711;46.634;14.318;2023-11-19T06:50:01;0.40;99.90
15217;DHT22;7711;46.634;14.318;2023-11-19T06:52:31;0.50;99.90
15217;DHT22;7711;46.634;14.318;2023-11-19T06:54:58;0.50;99.90
15217;DHT22;7711;46.634;14.318;2023-11-19T06:57:25;0.60;99.90
15217;DHT22;7711;46.634;14.318;2023-11-19T06:59:52;0.60;99.90
15217;DHT22;7711;46.634;14.318;2023-11-19T07:02:19;0.60;99.90
15217;DHT22;7711;46.634;14.318;2023-11-19T07:04:47;0.80;99.90
15217;DHT22;7711;46.634;14.318;2023-11-19T07:07:14;0.80;99.90
15217;DHT22;7711;46.634;14.318;2023-11-19T07:09:41;0.90;99.90
15217;DHT22;7711;46.634;14.318;2023-11-19T07:12:09;0.80;99.90
15217;DHT22;7711;46.634;14.318;2023-11-19T07:14:36;0.80;99.90
15217;DHT22;7711;46.634;14.318;2023-11-19T07:17:03;0.80;99.90
15217;DHT22;7711;46.634;14.318;2023-11-19T07:19:30;0.80;99.90
15217;DHT22;7711;46.634;14.318;2023-11-19T07:21:58;0.90;99.90
15217;DHT22;7711;46.634;14.318;2023-11-19T07:24:25;1.00;99.90
15217;DHT22;7711;46.634;14.318;2023-11-19T07:26:53;1.10;99.90
15217;DHT22;7711;46.634;14.318;2023-11-19T07:29:20;1.00;99.90
15217;DHT22;7711;46.634;14.318;2023-11-19T07:31:48;1.10;99.90
15217;DHT22;7711;46.634;14.318;2023-11-19T07:34:16;1.20;99.90
15217;DHT22;7711;46.634;14.318;2023-11-19T07:36:43;1.20;99.90
15217;DHT22;7711;46.634;14.318;2023-11-19T07:39:12;1.20;99.90
15217;DHT22;7711;46.634;14.318;2023-11-19T07:41:39;1.30;99.90
15217;DHT22;7711;46.634;14.318;2023-11-19T07:44:06;1.40;99.90
15217;DHT22;7711;46.634;14.318;2023-11-19T07:46:33;1.50;99.90
15217;DHT22;7711;46.634;14.318;2023-11-19T07:49:00;1.50;99.90
15217;DHT22;7711;46.634;14.318;2023-11-19T07:51:29;1.50;99.90
15217;DHT22;7711;46.634;14.318;2023-11-19T07:53:56;1.60;99.90
15217;DHT22;7711;46.634;14.318;2023-11-19T07:56:24;1.60;99.90
15217;DHT22;7711;46.634;14.318;2023-11-19T07:58:50;1.60;99.90
15217;DHT22;7711;46.634;14.318;2023-11-19T08:01:18;1.60;99.90
15217;DHT22;7711;46.634;14.318;2023-11-19T08:03:45;1.70;99.90
15217;DHT22;7711;46.634;14.318;2023-11-19T08:06:12;1.80;99.90
15217;DHT22;7711;46.634;14.318;2023-11-19T08:08:39;1.90;99.90
15217;DHT22;7711;46.634;14.318;2023-11-19T08:11:06;1.90;99.90
15217;DHT22;7711;46.634;14.318;2023-11-19T08:13:34;2.10;99.90
15217;DHT22;7711;46.634;14.318;2023-11-19T08:16:02;2.20;99.90
15217;DHT22;7711;46.634;14.318;2023-11-19T08:18:28;2.30;99.90
15217;DHT22;7711;46.634;14.318;2023-11-19T08:20:55;2.30;99.90
15217;DHT22;7711;46.634;14.318;2023-11-19T08:23:24;2.60;99.90
15217;DHT22;7711;46.634;14.318;2023-11-19T08:25:54;2.70;99.90
15217;DHT22;7711;46.634;14.318;2023-11-19T08:28:21;2.40;99.90
15217;DHT22;7711;46.634;14.318;2023-11-19T08:30:50;2.40;99.90
15217;DHT22;7711;46.634;14.318;2023-11-19T08:33:17;2.40;99.90
15217;DHT22;7711;46.634;14.318;2023-11-19T08:35:44;2.40;99.90
15217;DHT22;7711;46.634;14.318;2023-11-19T08:38:12;2.50;99.90
15217;DHT22;7711;46.634;14.318;2023-11-19T08:40:39;2.50;99.90
15217;DHT22;7711;46.634;14.318;2023-11-19T08:43:07;2.80;99.90
15217;DHT22;7711;46.634;14.318;2023-11-19T08:45:33;3.00;99.90
15217;DHT22;7711;46.634;14.318;2023-11-19T08:48:03;3.10;99.90
15217;DHT22;7711;46.634;14.318;2023-11-19T08:50:30;3.30;99.90
15217;DHT22;7711;46.634;14.318;2023-11-19T08:52:57;3.30;99.90
15217;DHT22;7711;46.634;14.318;2023-11-19T08:55:24;3.30;99.90
15217;DHT22;7711;46.634;14.318;2023-11-19T08:57:51;3.20;99.90
15217;DHT22;7711;46.634;14.318;2023-11-19T09:00:18;3.40;99.90
15217;DHT22;7711;46.634;14.318;2023-11-19T09:02:46;3.60;99.90
15217;DHT22;7711;46.634;14.318;2023-11-19T09:05:15;3.70;99.90
15217;DHT22;7711;46.634;14.318;2023-11-19T09:07:42;3.80;99.90
15217;DHT22;7711;46.634;14.318;2023-11-19T09:10:09;4.20;99.90
15217;DHT22;7711;46.634;14.318;2023-11-19T09:12:37;3.90;99.90
15217;DHT22;7711;46.634;14.318;2023-11-19T09:15:04;4.10;99.90
15217;DHT22;7711;46.634;14.318;2023-11-19T09:17:32;4.20;99.90
15217;DHT22;7711;46.634;14.318;2023-11-19T09:19:59;4.20;99.90
15217;DHT22;7711;46.634;14.318;2023-11-19T09:22:27;4.10;99.90
15217;DHT22;7711;46.634;14.318;2023-11-19T09:24:54;4.20;99.90
15217;DHT22;7711;46.634;14.318;2023-11-19T09:27:21;4.30;99.90
15217;DHT22;7711;46.634;14.318;2023-11-19T09:29:48;4.50;99.90
15217;DHT22;7711;46.634;14.318;2023-11-19T09:32:20;4.50;99.90
15217;DHT22;7711;46.634;14.318;2023-11-19T09:34:47;4.60;99.90
15217;DHT22;7711;46.634;14.318;2023-11-19T09:37:14;4.80;99.90
15217;DHT22;7711;46.634;14.318;2023-11-19T09:39:42;4.60;99.90
15217;DHT22;7711;46.634;14.318;2023-11-19T09:42:09;4.70;99.90
15217;DHT22;7711;46.634;14.318;2023-11-19T09:44:37;4.90;99.90
15217;DHT22;7711;46.634;14.318;2023-11-19T09:47:05;5.00;99.90
15217;DHT22;7711;46.634;14.318;2023-11-19T09:49:33;4.90;99.90
15217;DHT22;7711;46.634;14.318;2023-11-19T09:52:01;5.00;99.90
15217;DHT22;7711;46.634;14.318;2023-11-19T09:54:29;5.10;99.90
15217;DHT22;7711;46.634;14.318;2023-11-19T09:56:58;5.10;99.90
15217;DHT22;7711;46.634;14.318;2023-11-19T09:59:28;5.20;99.90
15217;DHT22;7711;46.634;14.318;2023-11-19T10:01:56;5.20;99.90
15217;DHT22;7711;46.634;14.318;2023-11-19T10:04:24;5.20;99.90
15217;DHT22;7711;46.634;14.318;2023-11-19T10:06:52;5.30;99.90
15217;DHT22;7711;46.634;14.318;2023-11-19T10:09:19;5.40;99.90
15217;DHT22;7711;46.634;14.318;2023-11-19T10:11:46;5.50;99.90
15217;DHT22;7711;46.634;14.318;2023-11-19T10:14:15;5.50;99.90
15217;DHT22;7711;46.634;14.318;2023-11-19T10:16:45;5.50;99.90
15217;DHT22;7711;46.634;14.318;2023-11-19T10:19:18;5.50;99.90
15217;DHT22;7711;46.634;14.318;2023-11-19T10:21:46;5.50;99.90
15217;DHT22;7711;46.634;14.318;2023-11-19T10:24:13;5.50;99.90
15217;DHT22;7711;46.634;14.318;2023-11-19T10:26:40;5.70;99.90
15217;DHT22;7711;46.634;14.318;2023-11-19T10:29:08;5.70;99.90
15217;DHT22;7711;46.634;14.318;2023-11-19T10:31:36;5.70;99.90
15217;DHT22;7711;46.634;14.318;2023-11-19T10:34:03;5.90;99.90
15217;DHT22;7711;46.634;14.318;2023-11-19T10:36:39;6.10;99.90
15217;DHT22;7711;46.634;14.318;2023-11-19T10:39:07;6.30;99.90
15217;DHT22;7711;46.634;14.318;2023-11-19T10:41:35;6.40;99.90
15217;DHT22;7711;46.634;14.318;2023-11-19T10:44:02;6.50;99.90
15217;DHT22;7711;46.634;14.318;2023-11-19T10:46:39;6.60;99.90
15217;DHT22;7711;46.634;14.318;2023-11-19T10:49:07;6.60;99.90
15217;DHT22;7711;46.634;14.318;2023-11-19T10:51:34;6.80;99.90
15217;DHT22;7711;46.634;14.318;2023-11-19T10:54:03;6.60;99.90
15217;DHT22;7711;46.634;14.318;2023-11-19T10:56:31;6.70;99.90
15217;DHT22;7711;46.634;14.318;2023-11-19T10:58:59;7.00;99.90
15217;DHT22;7711;46.634;14.318;2023-11-19T11:01:29;7.10;99.90
15217;DHT22;7711;46.634;14.318;2023-11-19T11:04:02;7.20;99.90
15217;DHT22;7711;46.634;14.318;2023-11-19T11:06:30;7.00;99.90
15217;DHT22;7711;46.634;14.318;2023-11-19T11:08:58;7.00;99.90
15217;DHT22;7711;46.634;14.318;2023-11-19T11:11:26;7.10;99.90
15217;DHT22;7711;46.634;14.318;2023-11-19T11:13:55;7.20;99.90
15217;DHT22;7711;46.634;14.318;2023-11-19T11:16:24;7.40;99.90
15217;DHT22;7711;46.634;14.318;2023-11-19T11:18:53;7.50;99.90
15217;DHT22;7711;46.634;14.318;2023-11-19T11:21:24;7.80;99.90
15217;DHT22;7711;46.634;14.318;2023-11-19T11:24:22;7.90;99.90
15217;DHT22;7711;46.634;14.318;2023-11-19T11:27:25;7.90;99.90
15217;DHT22;7711;46.634;14.318;2023-11-19T11:30:05;7.90;99.90
15217;DHT22;7711;46.634;14.318;2023-11-19T11:32:41;7.90;99.90
15217;DHT22;7711;46.634;14.318;2023-11-19T11:35:27;7.90;99.90
15217;DHT22;7711;46.634;14.318;2023-11-19T11:38:03;8.10;99.90
15217;DHT22;7711;46.634;14.318;2023-11-19T11:40:32;8.30;99.90
15217;DHT22;7711;46.634;14.318;2023-11-19T11:42:59;8.20;99.90
15217;DHT22;7711;46.634;14.318;2023-11-19T11:45:36;8.30;99.90
15217;DHT22;7711;46.634;14.318;2023-11-19T11:48:15;8.50;99.90
15217;DHT22;7711;46.634;14.318;2023-11-19T11:50:49;8.50;99.90
15217;DHT22;7711;46.634;14.318;2023-11-19T11:53:18;8.60;99.90
15217;DHT22;7711;46.634;14.318;2023-11-19T11:55:58;8.80;99.90
15217;DHT22;7711;46.634;14.318;2023-11-19T11:58:31;8.90;99.90
15217;DHT22;7711;46.634;14.318;2023-11-19T12:00:59;8.80;99.90
15217;DHT22;7711;46.634;14.318;2023-11-19T12:03:28;9.00;99.90
15217;DHT22;7711;46.634;14.318;2023-11-19T12:05:56;9.20;99.90
15217;DHT22;7711;46.634;14.318;2023-11-19T12:08:27;9.00;99.90
15217;DHT22;7711;46.634;14.318;2023-11-19T12:10:56;9.10;99.90
15217;DHT22;7711;46.634;14.318;2023-11-19T12:13:28;8.90;99.90
15217;DHT22;7711;46.634;14.318;2023-11-19T12:16:08;9.30;99.90
15217;DHT22;7711;46.634;14.318;2023-11-19T12:18:38;9.30;99.90
15217;DHT22;7711;46.634;14.318;2023-11-19T12:21:06;9.50;99.90
15217;DHT22;7711;46.634;14.318;2023-11-19T12:23:47;9.50;99.90
15217;DHT22;7711;46.634;14.318;2023-11-19T12:26:33;9.40;99.90
15217;DHT22;7711;46.634;14.318;2023-11-19T12:29:01;9.60;99.90
15217;DHT22;7711;46.634;14.318;2023-11-19T12:31:32;9.70;99.90
15217;DHT22;7711;46.634;14.318;2023-11-19T12:34:08;9.70;99.90
15217;DHT22;7711;46.634;14.318;2023-11-19T12:36:38;9.70;99.90
15217;DHT22;7711;46.634;14.318;2023-11-19T12:39:07;9.80;99.90
15217;DHT22;7711;46.634;14.318;2023-11-19T12:41:52;9.90;99.90
15217;DHT22;7711;46.634;14.318;2023-11-19T12:44:20;9.90;99.90
15217;DHT22;7711;46.634;14.318;2023-11-19T12:46:58;10.00;99.90
15217;DHT22;7711;46.634;14.318;2023-11-19T12:49:25;10.20;99.90
15217;DHT22;7711;46.634;14.318;2023-11-19T12:51:52;10.80;99.90
15217;DHT22;7711;46.634;14.318;2023-11-19T12:54:32;11.70;99.90
15217;DHT22;7711;46.634;14.318;2023-11-19T12:56:59;13.00;99.90
15217;DHT22;7711;46.634;14.318;2023-11-19T12:59:26;13.40;99.90
15217;DHT22;7711;46.634;14.318;2023-11-19T13:01:56;14.40;99.90
15217;DHT22;7711;46.634;14.318;2023-11-19T13:04:27;14.90;99.90
15217;DHT22;7711;46.634;14.318;2023-11-19T13:06:54;15.10;99.90
15217;DHT22;7711;46.634;14.318;2023-11-19T13:09:24;14.20;99.90
15217;DHT22;7711;46.634;14.318;2023-11-19T13:11:51;14.00;99.90
15217;DHT22;7711;46.634;14.318;2023-11-19T13:14:19;14.70;99.90
15217;DHT22;7711;46.634;14.318;2023-11-19T13:16:46;15.10;99.90
15217;DHT22;7711;46.634;14.318;2023-11-19T13:19:13;15.20;99.90
15217;DHT22;7711;46.634;14.318;2023-11-19T13:21:41;15.10;99.90
15217;DHT22;7711;46.634;14.318;2023-11-19T13:24:11;15.00;99.90
15217;DHT22;7711;46.634;14.318;2023-11-19T13:26:39;14.20;99.90
15217;DHT22;7711;46.634;14.318;2023-11-19T13:29:07;15.20;99.90
15217;DHT22;7711;46.634;14.318;2023-11-19T13:31:36;15.30;99.90
15217;DHT22;7711;46.634;14.318;2023-11-19T13:34:03;14.00;99.90
15217;DHT22;7711;46.634;14.318;2023-11-19T13:36:30;13.40;99.90
15217;DHT22;7711;46.634;14.318;2023-11-19T13:38:57;13.90;99.90
15217;DHT22;7711;46.634;14.318;2023-11-19T13:41:25;14.90;99.90
15217;DHT22;7711;46.634;14.318;2023-11-19T13:43:53;14.70;99.90
15217;DHT22;7711;46.634;14.318;2023-11-19T13:46:20;14.50;99.90
15217;DHT22;7711;46.634;14.318;2023-11-19T13:48:47;15.00;99.90
15217;DHT22;7711;46.634;14.318;2023-11-19T13:51:16;14.70;99.90
15217;DHT22;7711;46.634;14.318;2023-11-19T13:53:43;14.80;99.90
15217;DHT22;7711;46.634;14.318;2023-11-19T13:56:10;15.10;99.90
15217;DHT22;7711;46.634;14.318;2023-11-19T13:58:37;15.40;99.90
15217;DHT22;7711;46.634;14.318;2023-11-19T14:01:07;15.10;99.90
15217;DHT22;7711;46.634;14.318;2023-11-19T14:03:34;15.50;99.90
15217;DHT22;7711;46.634;14.318;2023-11-19T14:06:01;15.10;99.90
15217;DHT22;7711;46.634;14.318;2023-11-19T14:08:28;15.70;99.90
15217;DHT22;7711;46.634;14.318;2023-11-19T14:10:55;15.70;99.90
15217;DHT22;7711;46.634;14.318;2023-11-19T14:13:23;15.60;99.90
15217;DHT22;7711;46.634;14.318;2023-11-19T14:15:50;15.90;99.90
15217;DHT22;7711;46.634;14.318;2023-11-19T14:18:18;15.70;99.90
15217;DHT22;7711;46.634;14.318;2023-11-19T14:20:45;15.30;99.90
15217;DHT22;7711;46.634;14.318;2023-11-19T14:23:12;14.50;99.90
15217;DHT22;7711;46.634;14.318;2023-11-19T14:25:39;14.50;99.90
15217;DHT22;7711;46.634;14.318;2023-11-19T14:28:06;13.70;99.90
15217;DHT22;7711;46.634;14.318;2023-11-19T14:30:34;13.10;99.90
15217;DHT22;7711;46.634;14.318;2023-11-19T14:33:01;12.50;99.90
15217;DHT22;7711;46.634;14.318;2023-11-19T14:35:30;11.80;99.90
15217;DHT22;7711;46.634;14.318;2023-11-19T14:37:58;11.50;99.90
15217;DHT22;7711;46.634;14.318;2023-11-19T14:40:26;11.20;99.90
15217;DHT22;7711;46.634;14.318;2023-11-19T14:42:53;10.80;99.90
15217;DHT22;7711;46.634;14.318;2023-11-19T14:45:20;10.40;99.90
15217;DHT22;7711;46.634;14.318;2023-11-19T14:47:47;10.20;99.90
15217;DHT22;7711;46.634;14.318;2023-11-19T14:50:14;9.90;99.90
15217;DHT22;7711;46.634;14.318;2023-11-19T14:52:42;9.60;99.90
15217;DHT22;7711;46.634;14.318;2023-11-19T14:55:09;9.50;99.90
15217;DHT22;7711;46.634;14.318;2023-11-19T14:57:37;9.40;99.90
15217;DHT22;7711;46.634;14.318;2023-11-19T15:00:06;9.20;99.90
15217;DHT22;7711;46.634;14.318;2023-11-19T15:02:39;9.00;99.90
15217;DHT22;7711;46.634;14.318;2023-11-19T15:05:07;8.90;99.90
15217;DHT22;7711;46.634;14.318;2023-11-19T15:07:35;8.80;99.90
15217;DHT22;7711;46.634;14.318;2023-11-19T15:10:04;8.60;99.90
15217;DHT22;7711;46.634;14.318;2023-11-19T15:12:36;8.40;99.90
15217;DHT22;7711;46.634;14.318;2023-11-19T15:15:07;8.40;99.90
15217;DHT22;7711;46.634;14.318;2023-11-19T15:17:35;8.20;99.90
15217;DHT22;7711;46.634;14.318;2023-11-19T15:20:03;7.90;99.90
15217;DHT22;7711;46.634;14.318;2023-11-19T15:22:30;7.80;99.90
15217;DHT22;7711;46.634;14.318;2023-11-19T15:24:57;7.60;99.90
15217;DHT22;7711;46.634;14.318;2023-11-19T15:27:25;7.50;99.90
15217;DHT22;7711;46.634;14.318;2023-11-19T15:29:52;7.30;99.90
15217;DHT22;7711;46.634;14.318;2023-11-19T15:32:19;7.20;99.90
15217;DHT22;7711;46.634;14.318;2023-11-19T15:34:46;7.20;99.90
15217;DHT22;7711;46.634;14.318;2023-11-19T15:37:14;7.10;99.90
15217;DHT22;7711;46.634;14.318;2023-11-19T15:39:41;6.90;99.90
15217;DHT22;7711;46.634;14.318;2023-11-19T15:42:08;6.80;99.90
15217;DHT22;7711;46.634;14.318;2023-11-19T15:44:38;6.70;99.90
15217;DHT22;7711;46.634;14.318;2023-11-19T15:47:06;6.60;99.90
15217;DHT22;7711;46.634;14.318;2023-11-19T15:49:33;6.50;99.90
15217;DHT22;7711;46.634;14.318;2023-11-19T15:52:00;6.40;99.90